logo
Search for airport 
image banner adimage banner adimage banner ad
image banner ad

EPKH - Koszalin Baza Lpr

Located in Kurozw, Poland

ICAO - , IATA -

Data provided by Airmate  

General information

Coordinates: N54°3'1" E16°16'47"
Elevation is 237 feet MSL.
Magnetic variation is 6° East
View others Airports in West Pomerania

Operational data

Special qualification required
Current time UTC:
Current local time:
Weather at : EPDA - Darlowo ( 40 km )
TAF: TAF EPDA 231700Z 2318/2406 12005KT CAVOK BECMG 2322/2324 24010KT TEMPO 2400/2406 BKN025CB PROB30 TEMPO 2401/2406 -TSRA BKN020CB
View NOTAMs / SUP AIP / TFR affecting this airport [VIEW]
Communications frequencies: [VIEW]

Runways:

Airport contact information

Address: Kurozw Poland

Satellite view of EPKH